sensor_id;sensor_type;location;lat;lon;timestamp;pressure;altitude;pressure_sealevel;temperature;humidity
54329;BME280;40710;51.120;13.136;2023-03-19T00:01:05;99177.78;;;13.64;45.05
54329;BME280;40710;51.120;13.136;2023-03-19T00:03:30;99182.66;;;13.04;46.10
54329;BME280;40710;51.120;13.136;2023-03-19T00:05:56;99173.66;;;13.60;44.57
54329;BME280;40710;51.120;13.136;2023-03-19T00:08:22;99172.59;;;13.50;45.02
54329;BME280;40710;51.120;13.136;2023-03-19T00:10:46;99184.03;;;13.23;45.89
54329;BME280;40710;51.120;13.136;2023-03-19T00:13:11;99175.34;;;13.87;44.18
54329;BME280;40710;51.120;13.136;2023-03-19T00:15:36;99167.66;;;13.45;45.05
54329;BME280;40710;51.120;13.136;2023-03-19T00:18:00;99174.69;;;13.32;45.20
54329;BME280;40710;51.120;13.136;2023-03-19T00:20:25;99178.75;;;12.83;46.05
54329;BME280;40710;51.120;13.136;2023-03-19T00:22:50;99180.31;;;13.13;45.57
54329;BME280;40710;51.120;13.136;2023-03-19T00:25:15;99164.38;;;13.80;44.29
54329;BME280;40710;51.120;13.136;2023-03-19T00:27:40;99168.72;;;13.55;44.48
54329;BME280;40710;51.120;13.136;2023-03-19T00:30:06;99170.53;;;12.75;45.92
54329;BME280;40710;51.120;13.136;2023-03-19T00:32:31;99177.03;;;12.96;45.79
54329;BME280;40710;51.120;13.136;2023-03-19T00:34:58;99174.63;;;13.06;45.31
54329;BME280;40710;51.120;13.136;2023-03-19T00:37:23;99180.41;;;13.11;45.39
54329;BME280;40710;51.120;13.136;2023-03-19T00:39:47;99172.34;;;12.33;46.67
54329;BME280;40710;51.120;13.136;2023-03-19T00:42:12;99168.63;;;13.17;44.99
54329;BME280;40710;51.120;13.136;2023-03-19T00:44:36;99163.94;;;13.08;45.01
54329;BME280;40710;51.120;13.136;2023-03-19T00:47:01;99166.09;;;13.28;44.73
54329;BME280;40710;51.120;13.136;2023-03-19T00:49:25;99171.28;;;13.17;44.70
54329;BME280;40710;51.120;13.136;2023-03-19T00:51:50;99150.28;;;13.79;43.49
54329;BME280;40710;51.120;13.136;2023-03-19T00:54:15;99157.84;;;13.20;44.70
54329;BME280;40710;51.120;13.136;2023-03-19T00:56:40;99160.78;;;13.02;44.77
54329;BME280;40710;51.120;13.136;2023-03-19T00:59:04;99162.44;;;13.31;44.10
54329;BME280;40710;51.120;13.136;2023-03-19T01:01:30;99152.41;;;13.74;43.37
54329;BME280;40710;51.120;13.136;2023-03-19T01:03:56;99154.63;;;13.29;43.68
54329;BME280;40710;51.120;13.136;2023-03-19T01:06:21;99158.47;;;13.38;44.29
54329;BME280;40710;51.120;13.136;2023-03-19T01:08:45;99154.00;;;12.85;45.15
54329;BME280;40710;51.120;13.136;2023-03-19T01:11:12;99150.31;;;13.41;44.08
54329;BME280;40710;51.120;13.136;2023-03-19T01:13:38;99154.25;;;13.08;44.64
54329;BME280;40710;51.120;13.136;2023-03-19T01:16:03;99152.75;;;13.44;43.93
54329;BME280;40710;51.120;13.136;2023-03-19T01:18:27;99151.47;;;13.50;44.13
54329;BME280;40710;51.120;13.136;2023-03-19T01:20:52;99143.53;;;14.01;42.73
54329;BME280;40710;51.120;13.136;2023-03-19T01:23:17;99145.25;;;13.76;43.30
54329;BME280;40710;51.120;13.136;2023-03-19T01:25:41;99140.78;;;14.03;42.77
54329;BME280;40710;51.120;13.136;2023-03-19T01:28:06;99155.34;;;13.18;43.80
54329;BME280;40710;51.120;13.136;2023-03-19T01:30:31;99152.19;;;13.26;44.49
54329;BME280;40710;51.120;13.136;2023-03-19T01:32:56;99142.09;;;13.71;43.39
54329;BME280;40710;51.120;13.136;2023-03-19T01:35:20;99140.25;;;13.85;43.01
54329;BME280;40710;51.120;13.136;2023-03-19T01:37:45;99140.59;;;13.80;43.03
54329;BME280;40710;51.120;13.136;2023-03-19T01:40:13;99128.44;;;14.51;41.51
54329;BME280;40710;51.120;13.136;2023-03-19T01:42:55;99118.44;;;14.44;41.46
54329;BME280;40710;51.120;13.136;2023-03-19T01:45:39;99127.81;;;14.48;41.37
54329;BME280;40710;51.120;13.136;2023-03-19T01:48:04;99128.56;;;14.26;41.68
54329;BME280;40710;51.120;13.136;2023-03-19T01:50:40;99142.41;;;13.67;42.19
54329;BME280;40710;51.120;13.136;2023-03-19T01:53:06;99129.59;;;14.23;41.94
54329;BME280;40710;51.120;13.136;2023-03-19T01:55:31;99140.38;;;13.70;42.78
54329;BME280;40710;51.120;13.136;2023-03-19T01:57:56;99140.59;;;13.54;43.45
54329;BME280;40710;51.120;13.136;2023-03-19T02:00:21;99140.91;;;13.50;43.21
54329;BME280;40710;51.120;13.136;2023-03-19T02:02:51;99133.53;;;13.42;43.92
54329;BME280;40710;51.120;13.136;2023-03-19T02:05:18;99131.28;;;13.74;43.15
54329;BME280;40710;51.120;13.136;2023-03-19T02:07:49;99124.50;;;13.96;42.45
54329;BME280;40710;51.120;13.136;2023-03-19T02:10:15;99127.38;;;13.93;42.60
54329;BME280;40710;51.120;13.136;2023-03-19T02:12:41;99123.59;;;14.21;41.79
54329;BME280;40710;51.120;13.136;2023-03-19T02:15:06;99117.06;;;14.14;42.06
54329;BME280;40710;51.120;13.136;2023-03-19T02:17:32;99116.28;;;13.88;42.58
54329;BME280;40710;51.120;13.136;2023-03-19T02:22:32;99119.25;;;13.70;42.93
54329;BME280;40710;51.120;13.136;2023-03-19T02:25:13;99123.50;;;13.34;43.87
54329;BME280;40710;51.120;13.136;2023-03-19T02:27:40;99140.19;;;12.95;44.72
54329;BME280;40710;51.120;13.136;2023-03-19T02:30:20;99121.91;;;13.70;43.26
54329;BME280;40710;51.120;13.136;2023-03-19T02:32:45;99120.50;;;13.77;43.02
54329;BME280;40710;51.120;13.136;2023-03-19T02:35:10;99135.81;;;12.81;44.67
54329;BME280;40710;51.120;13.136;2023-03-19T02:37:35;99117.34;;;13.72;43.53
54329;BME280;40710;51.120;13.136;2023-03-19T02:40:23;99118.56;;;14.05;42.38
54329;BME280;40710;51.120;13.136;2023-03-19T02:42:49;99123.06;;;14.29;41.81
54329;BME280;40710;51.120;13.136;2023-03-19T02:45:14;99118.31;;;13.71;43.22
54329;BME280;40710;51.120;13.136;2023-03-19T02:47:40;99135.06;;;13.19;44.24
54329;BME280;40710;51.120;13.136;2023-03-19T02:50:05;99124.34;;;13.48;43.98
54329;BME280;40710;51.120;13.136;2023-03-19T02:52:31;99130.91;;;13.68;42.94
54329;BME280;40710;51.120;13.136;2023-03-19T02:54:55;99127.53;;;13.66;43.50
54329;BME280;40710;51.120;13.136;2023-03-19T02:57:20;99132.13;;;13.62;43.33
54329;BME280;40710;51.120;13.136;2023-03-19T02:59:45;99135.41;;;13.91;42.56
54329;BME280;40710;51.120;13.136;2023-03-19T03:02:10;99139.34;;;13.34;43.18
54329;BME280;40710;51.120;13.136;2023-03-19T03:04:34;99139.31;;;13.60;42.88
54329;BME280;40710;51.120;13.136;2023-03-19T03:07:01;99155.09;;;13.09;44.38
54329;BME280;40710;51.120;13.136;2023-03-19T03:09:26;99153.13;;;12.45;45.36
54329;BME280;40710;51.120;13.136;2023-03-19T03:11:51;99150.94;;;13.32;44.08
54329;BME280;40710;51.120;13.136;2023-03-19T03:14:16;99153.25;;;13.62;43.84
54329;BME280;40710;51.120;13.136;2023-03-19T03:16:40;99142.59;;;13.89;42.77
54329;BME280;40710;51.120;13.136;2023-03-19T03:19:06;99159.16;;;13.27;44.13
54329;BME280;40710;51.120;13.136;2023-03-19T03:21:31;99157.56;;;12.84;44.84
54329;BME280;40710;51.120;13.136;2023-03-19T03:23:55;99158.13;;;12.35;46.08
54329;BME280;40710;51.120;13.136;2023-03-19T03:26:20;99165.66;;;13.09;44.76
54329;BME280;40710;51.120;13.136;2023-03-19T03:28:45;99164.94;;;13.19;44.66
54329;BME280;40710;51.120;13.136;2023-03-19T03:31:10;99159.22;;;13.13;44.66
54329;BME280;40710;51.120;13.136;2023-03-19T03:33:35;99162.44;;;12.91;44.89
54329;BME280;40710;51.120;13.136;2023-03-19T03:36:00;99164.38;;;13.01;44.83
54329;BME280;40710;51.120;13.136;2023-03-19T03:38:24;99156.16;;;12.66;44.99
54329;BME280;40710;51.120;13.136;2023-03-19T03:40:51;99155.56;;;13.28;44.03
54329;BME280;40710;51.120;13.136;2023-03-19T03:43:15;99150.75;;;13.60;43.54
54329;BME280;40710;51.120;13.136;2023-03-19T03:45:43;99151.81;;;13.45;43.45
54329;BME280;40710;51.120;13.136;2023-03-19T03:48:07;99154.56;;;13.03;44.19
54329;BME280;40710;51.120;13.136;2023-03-19T03:50:32;99159.75;;;13.05;44.46
54329;BME280;40710;51.120;13.136;2023-03-19T03:52:57;99150.28;;;13.28;43.92
54329;BME280;40710;51.120;13.136;2023-03-19T03:55:22;99155.81;;;13.38;43.90
54329;BME280;40710;51.120;13.136;2023-03-19T03:57:46;99165.25;;;13.15;44.58
54329;BME280;40710;51.120;13.136;2023-03-19T04:00:11;99155.72;;;13.52;43.63
54329;BME280;40710;51.120;13.136;2023-03-19T04:02:36;99151.78;;;13.32;43.74
54329;BME280;40710;51.120;13.136;2023-03-19T04:05:01;99155.72;;;12.99;44.83
54329;BME280;40710;51.120;13.136;2023-03-19T04:07:26;99153.50;;;13.59;43.33
54329;BME280;40710;51.120;13.136;2023-03-19T04:09:51;99146.28;;;13.74;42.96
54329;BME280;40710;51.120;13.136;2023-03-19T04:12:15;99148.63;;;13.53;43.82
54329;BME280;40710;51.120;13.136;2023-03-19T04:14:40;99145.59;;;13.59;43.48
54329;BME280;40710;51.120;13.136;2023-03-19T04:17:05;99147.91;;;13.38;43.84
54329;BME280;40710;51.120;13.136;2023-03-19T04:19:30;99158.09;;;13.17;44.46
54329;BME280;40710;51.120;13.136;2023-03-19T04:21:56;99149.25;;;13.56;43.64
54329;BME280;40710;51.120;13.136;2023-03-19T04:24:20;99157.09;;;12.65;45.16
54329;BME280;40710;51.120;13.136;2023-03-19T04:26:45;99154.25;;;13.08;44.98
54329;BME280;40710;51.120;13.136;2023-03-19T04:29:12;99151.59;;;13.48;44.25
54329;BME280;40710;51.120;13.136;2023-03-19T04:31:36;99146.28;;;13.35;44.25
54329;BME280;40710;51.120;13.136;2023-03-19T04:34:01;99149.66;;;13.37;44.57
54329;BME280;40710;51.120;13.136;2023-03-19T04:36:26;99148.41;;;13.69;43.70
54329;BME280;40710;51.120;13.136;2023-03-19T04:38:51;99158.63;;;12.82;45.74
54329;BME280;40710;51.120;13.136;2023-03-19T04:41:16;99162.38;;;13.05;45.23
54329;BME280;40710;51.120;13.136;2023-03-19T04:43:41;99171.16;;;12.51;46.80
54329;BME280;40710;51.120;13.136;2023-03-19T04:46:06;99168.56;;;12.37;46.39
54329;BME280;40710;51.120;13.136;2023-03-19T04:48:31;99173.78;;;12.51;46.13
54329;BME280;40710;51.120;13.136;2023-03-19T04:50:57;99170.22;;;12.79;46.00
54329;BME280;40710;51.120;13.136;2023-03-19T04:53:22;99170.03;;;12.95;45.44
54329;BME280;40710;51.120;13.136;2023-03-19T04:55:48;99165.25;;;13.15;45.26
54329;BME280;40710;51.120;13.136;2023-03-19T04:58:13;99168.81;;;13.01;45.40
54329;BME280;40710;51.120;13.136;2023-03-19T05:00:39;99177.03;;;12.42;47.00
54329;BME280;40710;51.120;13.136;2023-03-19T05:03:03;99178.81;;;12.27;47.08
54329;BME280;40710;51.120;13.136;2023-03-19T05:05:28;99181.41;;;12.56;46.59
54329;BME280;40710;51.120;13.136;2023-03-19T05:07:52;99171.06;;;12.80;46.25
54329;BME280;40710;51.120;13.136;2023-03-19T05:10:17;99176.56;;;12.35;46.79
54329;BME280;40710;51.120;13.136;2023-03-19T05:12:42;99170.72;;;12.72;46.31
54329;BME280;40710;51.120;13.136;2023-03-19T05:15:07;99174.25;;;12.85;47.89
54329;BME280;40710;51.120;13.136;2023-03-19T05:17:32;99173.66;;;13.07;46.49
54329;BME280;40710;51.120;13.136;2023-03-19T05:19:58;99167.88;;;12.75;46.91
54329;BME280;40710;51.120;13.136;2023-03-19T05:22:23;99166.38;;;13.11;45.66
54329;BME280;40710;51.120;13.136;2023-03-19T05:24:48;99161.63;;;13.03;46.01
54329;BME280;40710;51.120;13.136;2023-03-19T05:27:14;99168.03;;;12.59;46.81
54329;BME280;40710;51.120;13.136;2023-03-19T05:29:39;99167.78;;;12.76;46.80
54329;BME280;40710;51.120;13.136;2023-03-19T05:32:04;99172.84;;;13.19;45.92
54329;BME280;40710;51.120;13.136;2023-03-19T05:34:29;99169.09;;;12.96;46.67
54329;BME280;40710;51.120;13.136;2023-03-19T05:36:54;99169.66;;;12.74;46.82
54329;BME280;40710;51.120;13.136;2023-03-19T05:39:19;99170.16;;;12.66;47.03
54329;BME280;40710;51.120;13.136;2023-03-19T05:41:44;99176.91;;;12.71;46.76
54329;BME280;40710;51.120;13.136;2023-03-19T05:44:12;99176.78;;;12.18;48.48
54329;BME280;40710;51.120;13.136;2023-03-19T05:46:37;99186.44;;;12.32;48.15
54329;BME280;40710;51.120;13.136;2023-03-19T05:49:02;99178.78;;;12.00;48.49
54329;BME280;40710;51.120;13.136;2023-03-19T05:51:26;99177.34;;;12.64;47.25
54329;BME280;40710;51.120;13.136;2023-03-19T05:53:51;99178.13;;;12.79;46.76
54329;BME280;40710;51.120;13.136;2023-03-19T05:56:16;99189.28;;;12.14;48.55
54329;BME280;40710;51.120;13.136;2023-03-19T05:58:40;99188.47;;;12.55;47.65
54329;BME280;40710;51.120;13.136;2023-03-19T06:01:09;99193.81;;;12.12;48.40
54329;BME280;40710;51.120;13.136;2023-03-19T06:03:33;99201.53;;;12.57;47.67
54329;BME280;40710;51.120;13.136;2023-03-19T06:05:58;99200.78;;;12.27;48.39
54329;BME280;40710;51.120;13.136;2023-03-19T06:08:22;99196.03;;;12.47;47.92
54329;BME280;40710;51.120;13.136;2023-03-19T06:10:47;99207.59;;;12.44;47.85
54329;BME280;40710;51.120;13.136;2023-03-19T06:13:12;99203.47;;;12.82;47.19
54329;BME280;40710;51.120;13.136;2023-03-19T06:15:36;99210.44;;;12.27;48.33
54329;BME280;40710;51.120;13.136;2023-03-19T06:18:01;99205.63;;;13.02;47.76
54329;BME280;40710;51.120;13.136;2023-03-19T06:20:26;99209.41;;;13.26;46.43
54329;BME280;40710;51.120;13.136;2023-03-19T06:22:51;99205.31;;;13.34;45.99
54329;BME280;40710;51.120;13.136;2023-03-19T06:25:16;99208.09;;;12.78;47.26
54329;BME280;40710;51.120;13.136;2023-03-19T06:27:41;99204.78;;;13.02;46.56
54329;BME280;40710;51.120;13.136;2023-03-19T06:30:06;99211.19;;;12.71;47.22
54329;BME280;40710;51.120;13.136;2023-03-19T06:32:30;99197.97;;;13.91;44.96
54329;BME280;40710;51.120;13.136;2023-03-19T06:34:56;99210.22;;;13.26;46.20
54329;BME280;40710;51.120;13.136;2023-03-19T06:37:21;99208.31;;;13.68;45.29
54329;BME280;40710;51.120;13.136;2023-03-19T06:39:45;99211.59;;;13.97;44.80
54329;BME280;40710;51.120;13.136;2023-03-19T06:42:10;99206.56;;;14.31;43.68
54329;BME280;40710;51.120;13.136;2023-03-19T06:44:35;99204.78;;;14.19;44.12
54329;BME280;40710;51.120;13.136;2023-03-19T06:47:00;99214.53;;;14.06;44.57
54329;BME280;40710;51.120;13.136;2023-03-19T06:49:24;99209.03;;;13.70;45.02
54329;BME280;40710;51.120;13.136;2023-03-19T06:51:49;99206.31;;;14.84;43.16
54329;BME280;40710;51.120;13.136;2023-03-19T06:54:14;99205.91;;;15.02;42.53
54329;BME280;40710;51.120;13.136;2023-03-19T06:56:39;99207.94;;;14.98;42.18
54329;BME280;40710;51.120;13.136;2023-03-19T06:59:04;99204.13;;;15.38;41.84
54329;BME280;40710;51.120;13.136;2023-03-19T07:01:28;99203.59;;;15.21;41.62
54329;BME280;40710;51.120;13.136;2023-03-19T07:03:53;99221.94;;;14.13;43.73
54329;BME280;40710;51.120;13.136;2023-03-19T07:06:18;99225.66;;;13.32;45.33
54329;BME280;40710;51.120;13.136;2023-03-19T07:08:43;99227.75;;;14.18;44.30
54329;BME280;40710;51.120;13.136;2023-03-19T07:11:11;99209.13;;;14.94;42.77
54329;BME280;40710;51.120;13.136;2023-03-19T07:13:36;99215.69;;;15.37;42.27
54329;BME280;40710;51.120;13.136;2023-03-19T07:16:01;99219.03;;;14.79;43.04
54329;BME280;40710;51.120;13.136;2023-03-19T07:18:25;99218.13;;;14.91;42.44
54329;BME280;40710;51.120;13.136;2023-03-19T07:20:50;99211.88;;;15.63;41.53
54329;BME280;40710;51.120;13.136;2023-03-19T07:23:16;99208.56;;;15.73;41.31
54329;BME280;40710;51.120;13.136;2023-03-19T07:25:40;99209.31;;;16.09;40.42
54329;BME280;40710;51.120;13.136;2023-03-19T07:28:05;99206.72;;;17.18;39.30
54329;BME280;40710;51.120;13.136;2023-03-19T07:30:30;99211.81;;;16.55;40.29
54329;BME280;40710;51.120;13.136;2023-03-19T07:32:55;99210.44;;;16.72;39.68
54329;BME280;40710;51.120;13.136;2023-03-19T07:35:19;99213.06;;;16.29;40.81
54329;BME280;40710;51.120;13.136;2023-03-19T07:37:44;99214.91;;;16.83;40.25
54329;BME280;40710;51.120;13.136;2023-03-19T07:40:09;99215.25;;;17.22;39.65
54329;BME280;40710;51.120;13.136;2023-03-19T07:42:34;99213.13;;;17.37;39.02
54329;BME280;40710;51.120;13.136;2023-03-19T07:45:00;99221.16;;;17.26;39.15
54329;BME280;40710;51.120;13.136;2023-03-19T07:47:25;99221.03;;;16.95;39.88
54329;BME280;40710;51.120;13.136;2023-03-19T07:49:50;99211.22;;;17.60;38.74
54329;BME280;40710;51.120;13.136;2023-03-19T07:52:15;99210.41;;;18.21;37.75
54329;BME280;40710;51.120;13.136;2023-03-19T07:54:42;99198.06;;;18.70;36.68
54329;BME280;40710;51.120;13.136;2023-03-19T07:57:07;99199.44;;;19.25;36.11
54329;BME280;40710;51.120;13.136;2023-03-19T07:59:31;99197.84;;;19.52;35.63
54329;BME280;40710;51.120;13.136;2023-03-19T08:01:56;99198.25;;;19.47;35.80
54329;BME280;40710;51.120;13.136;2023-03-19T08:04:20;99198.88;;;19.98;35.53
54329;BME280;40710;51.120;13.136;2023-03-19T08:06:46;99188.19;;;19.98;35.30
54329;BME280;40710;51.120;13.136;2023-03-19T08:09:11;99188.78;;;20.29;34.99
54329;BME280;40710;51.120;13.136;2023-03-19T08:11:36;99183.94;;;20.43;34.74
54329;BME280;40710;51.120;13.136;2023-03-19T08:14:01;99188.97;;;20.46;35.02
54329;BME280;40710;51.120;13.136;2023-03-19T08:16:26;99182.41;;;21.22;33.70
54329;BME280;40710;51.120;13.136;2023-03-19T08:18:51;99184.31;;;20.75;34.29
54329;BME280;40710;51.120;13.136;2023-03-19T08:21:16;99193.19;;;20.76;34.35
54329;BME280;40710;51.120;13.136;2023-03-19T08:23:41;99188.34;;;21.33;33.24
54329;BME280;40710;51.120;13.136;2023-03-19T08:26:05;99179.50;;;22.12;31.82
54329;BME280;40710;51.120;13.136;2023-03-19T08:28:30;99191.09;;;20.70;34.32
54329;BME280;40710;51.120;13.136;2023-03-19T08:30:54;99173.97;;;23.15;30.28
54329;BME280;40710;51.120;13.136;2023-03-19T08:33:19;99177.47;;;23.15;30.31
54329;BME280;40710;51.120;13.136;2023-03-19T08:35:44;99188.56;;;21.84;31.89
54329;BME280;40710;51.120;13.136;2023-03-19T08:38:08;99173.75;;;23.82;29.75
54329;BME280;40710;51.120;13.136;2023-03-19T08:40:34;99179.69;;;22.53;31.11
54329;BME280;40710;51.120;13.136;2023-03-19T08:42:58;99167.91;;;23.70;29.64
54329;BME280;40710;51.120;13.136;2023-03-19T08:45:24;99166.97;;;24.11;29.17
54329;BME280;40710;51.120;13.136;2023-03-19T08:47:49;99172.59;;;23.85;29.15
54329;BME280;40710;51.120;13.136;2023-03-19T08:50:14;99173.97;;;23.39;29.58
54329;BME280;40710;51.120;13.136;2023-03-19T08:52:39;99196.34;;;20.62;33.56
54329;BME280;40710;51.120;13.136;2023-03-19T08:55:04;99205.84;;;21.10;33.87
54329;BME280;40710;51.120;13.136;2023-03-19T08:57:30;99196.38;;;21.15;33.10
54329;BME280;40710;51.120;13.136;2023-03-19T08:59:54;99191.28;;;20.58;33.90
54329;BME280;40710;51.120;13.136;2023-03-19T09:02:19;99210.44;;;19.79;35.31
54329;BME280;40710;51.120;13.136;2023-03-19T09:04:44;99202.47;;;20.72;33.77
54329;BME280;40710;51.120;13.136;2023-03-19T09:07:09;99206.59;;;20.84;33.80
54329;BME280;40710;51.120;13.136;2023-03-19T09:09:39;99206.69;;;20.92;34.20
54329;BME280;40710;51.120;13.136;2023-03-19T09:12:05;99226.16;;;19.53;36.04
54329;BME280;40710;51.120;13.136;2023-03-19T09:14:30;99229.03;;;18.62;37.60
54329;BME280;40710;51.120;13.136;2023-03-19T09:16:55;99220.25;;;20.26;35.11
54329;BME280;40710;51.120;13.136;2023-03-19T09:19:19;99214.00;;;20.72;34.54
54329;BME280;40710;51.120;13.136;2023-03-19T09:21:44;99210.13;;;21.83;33.48
54329;BME280;40710;51.120;13.136;2023-03-19T09:24:10;99209.03;;;21.31;33.79
54329;BME280;40710;51.120;13.136;2023-03-19T09:26:34;99204.81;;;21.91;32.69
54329;BME280;40710;51.120;13.136;2023-03-19T09:28:59;99205.00;;;22.24;32.53
54329;BME280;40710;51.120;13.136;2023-03-19T09:31:24;99213.31;;;22.13;32.69
54329;BME280;40710;51.120;13.136;2023-03-19T09:33:50;99199.56;;;23.75;30.33
54329;BME280;40710;51.120;13.136;2023-03-19T09:36:14;99196.50;;;24.03;30.10
54329;BME280;40710;51.120;13.136;2023-03-19T09:38:39;99180.09;;;25.23;28.83
54329;BME280;40710;51.120;13.136;2023-03-19T09:41:19;99197.19;;;24.44;29.17
54329;BME280;40710;51.120;13.136;2023-03-19T09:44:10;99193.03;;;25.65;27.91
54329;BME280;40710;51.120;13.136;2023-03-19T09:46:49;99188.75;;;24.87;28.50
54329;BME280;40710;51.120;13.136;2023-03-19T09:49:28;99186.41;;;26.21;27.02
54329;BME280;40710;51.120;13.136;2023-03-19T09:52:07;99184.94;;;26.70;26.51
54329;BME280;40710;51.120;13.136;2023-03-19T09:54:45;99186.78;;;27.27;26.14
54329;BME280;40710;51.120;13.136;2023-03-19T09:57:12;99191.78;;;26.21;26.82
54329;BME280;40710;51.120;13.136;2023-03-19T09:59:38;99186.53;;;25.60;28.26
54329;BME280;40710;51.120;13.136;2023-03-19T10:05:03;99184.75;;;26.56;27.01
54329;BME280;40710;51.120;13.136;2023-03-19T10:07:48;99199.28;;;25.20;28.84
54329;BME280;40710;51.120;13.136;2023-03-19T10:10:48;99197.47;;;25.12;28.97
54329;BME280;40710;51.120;13.136;2023-03-19T10:15:54;99213.16;;;23.08;31.82
54329;BME280;40710;51.120;13.136;2023-03-19T10:18:23;99188.25;;;24.60;29.53
54329;BME280;40710;51.120;13.136;2023-03-19T10:21:23;99192.56;;;24.69;29.66
54329;BME280;40710;51.120;13.136;2023-03-19T10:23:52;99215.88;;;22.57;31.66
54329;BME280;40710;51.120;13.136;2023-03-19T10:26:23;99221.56;;;22.62;32.38
54329;BME280;40710;51.120;13.136;2023-03-19T10:29:02;99224.69;;;21.26;33.50
54329;BME280;40710;51.120;13.136;2023-03-19T10:31:36;99212.25;;;22.74;31.98
54329;BME280;40710;51.120;13.136;2023-03-19T10:34:28;99217.06;;;22.02;33.11
54329;BME280;40710;51.120;13.136;2023-03-19T10:37:13;99225.34;;;22.43;33.00
54329;BME280;40710;51.120;13.136;2023-03-19T10:39:41;99221.72;;;23.11;31.92
54329;BME280;40710;51.120;13.136;2023-03-19T10:45:00;99194.00;;;25.03;28.59
54329;BME280;40710;51.120;13.136;2023-03-19T10:47:26;99199.63;;;25.17;28.76
54329;BME280;40710;51.120;13.136;2023-03-19T10:49:51;99211.31;;;24.78;29.17
54329;BME280;40710;51.120;13.136;2023-03-19T10:52:34;99207.78;;;24.46;29.45
54329;BME280;40710;51.120;13.136;2023-03-19T10:55:24;99203.91;;;24.40;28.97
54329;BME280;40710;51.120;13.136;2023-03-19T10:57:51;99196.53;;;25.28;28.48
54329;BME280;40710;51.120;13.136;2023-03-19T11:00:24;99204.03;;;25.56;28.58
54329;BME280;40710;51.120;13.136;2023-03-19T11:02:54;99170.94;;;29.86;23.83
54329;BME280;40710;51.120;13.136;2023-03-19T11:05:28;99184.72;;;26.86;26.64
54329;BME280;40710;51.120;13.136;2023-03-19T11:08:04;99182.28;;;27.91;25.60
54329;BME280;40710;51.120;13.136;2023-03-19T11:10:33;99169.56;;;28.68;24.49
54329;BME280;40710;51.120;13.136;2023-03-19T11:13:05;99174.84;;;28.90;24.37
54329;BME280;40710;51.120;13.136;2023-03-19T11:15:38;99184.78;;;28.69;24.66
54329;BME280;40710;51.120;13.136;2023-03-19T11:18:15;99182.19;;;27.78;25.23
54329;BME280;40710;51.120;13.136;2023-03-19T11:21:00;99179.09;;;28.57;24.81
54329;BME280;40710;51.120;13.136;2023-03-19T11:23:30;99185.59;;;27.37;25.84
54329;BME280;40710;51.120;13.136;2023-03-19T11:26:01;99185.91;;;27.48;25.95
54329;BME280;40710;51.120;13.136;2023-03-19T11:28:26;99183.31;;;27.33;26.74
54329;BME280;40710;51.120;13.136;2023-03-19T11:31:22;99197.28;;;25.60;28.96
54329;BME280;40710;51.120;13.136;2023-03-19T11:36:48;99194.78;;;24.89;29.94
54329;BME280;40710;51.120;13.136;2023-03-19T11:39:26;99190.44;;;24.48;30.74
54329;BME280;40710;51.120;13.136;2023-03-19T11:44:56;99210.41;;;22.83;33.48
54329;BME280;40710;51.120;13.136;2023-03-19T11:47:53;99208.31;;;23.28;32.94
54329;BME280;40710;51.120;13.136;2023-03-19T11:50:57;99187.69;;;25.19;30.60
54329;BME280;40710;51.120;13.136;2023-03-19T11:56:01;99191.09;;;24.90;31.64
54329;BME280;40710;51.120;13.136;2023-03-19T11:58:56;99193.19;;;23.84;31.53
54329;BME280;40710;51.120;13.136;2023-03-19T12:07:31;99185.47;;;25.00;30.51
54329;BME280;40710;51.120;13.136;2023-03-19T12:10:25;99192.56;;;25.77;29.82
54329;BME280;40710;51.120;13.136;2023-03-19T12:15:44;99184.72;;;24.20;31.75
54329;BME280;40710;51.120;13.136;2023-03-19T12:18:30;99180.44;;;24.42;32.01
54329;BME280;40710;51.120;13.136;2023-03-19T12:21:14;99182.78;;;23.97;32.35
54329;BME280;40710;51.120;13.136;2023-03-19T12:24:10;99195.50;;;22.72;35.11
54329;BME280;40710;51.120;13.136;2023-03-19T12:34:39;99195.25;;;23.41;31.64
54329;BME280;40710;51.120;13.136;2023-03-19T12:37:34;99198.69;;;22.76;32.71
54329;BME280;40710;51.120;13.136;2023-03-19T12:40:16;99184.97;;;23.03;32.80
54329;BME280;40710;51.120;13.136;2023-03-19T12:42:45;99182.19;;;23.21;32.70
54329;BME280;40710;51.120;13.136;2023-03-19T12:45:33;99195.22;;;22.49;33.94
54329;BME280;40710;51.120;13.136;2023-03-19T12:48:07;99197.53;;;22.95;33.19
54329;BME280;40710;51.120;13.136;2023-03-19T12:50:37;99201.97;;;22.53;33.34
54329;BME280;40710;51.120;13.136;2023-03-19T12:53:10;99197.09;;;22.49;33.88
54329;BME280;40710;51.120;13.136;2023-03-19T12:55:44;99195.28;;;22.57;34.54
54329;BME280;40710;51.120;13.136;2023-03-19T12:58:36;99184.50;;;23.66;32.98
54329;BME280;40710;51.120;13.136;2023-03-19T13:01:29;99201.28;;;22.51;34.68
54329;BME280;40710;51.120;13.136;2023-03-19T13:04:19;99214.22;;;21.33;36.60
54329;BME280;40710;51.120;13.136;2023-03-19T13:07:11;99202.13;;;23.27;34.06
54329;BME280;40710;51.120;13.136;2023-03-19T13:09:47;99197.06;;;23.57;33.36
54329;BME280;40710;51.120;13.136;2023-03-19T13:12:21;99211.84;;;22.61;35.18
54329;BME280;40710;51.120;13.136;2023-03-19T13:14:58;99216.97;;;22.38;36.04
54329;BME280;40710;51.120;13.136;2023-03-19T13:17:47;99218.69;;;22.21;35.94
54329;BME280;40710;51.120;13.136;2023-03-19T13:20:40;99222.69;;;22.17;35.58
54329;BME280;40710;51.120;13.136;2023-03-19T13:23:19;99211.53;;;22.64;34.90
54329;BME280;40710;51.120;13.136;2023-03-19T13:25:47;99219.22;;;22.59;35.06
54329;BME280;40710;51.120;13.136;2023-03-19T13:28:31;99218.16;;;22.43;35.01
54329;BME280;40710;51.120;13.136;2023-03-19T13:30:59;99221.66;;;22.44;35.24
54329;BME280;40710;51.120;13.136;2023-03-19T13:33:25;99228.88;;;21.83;36.11